TimeCDT,TemperatureF,Dew PointF,Humidity,Sea Level PressureIn,VisibilityMPH,Wind Direction,Wind SpeedMPH,Gust SpeedMPH,PrecipitationIn,Events,Conditions,WindDirDegrees,DateUTC
12:53 AM,27.0,23.0,85,29.62,10.0,NNE,13.8,-,N/A,,Overcast,30,2014-03-27 05:53:00
1:53 AM,25.0,21.9,88,29.60,10.0,NNE,12.7,-,N/A,,Clear,20,2014-03-27 06:53:00
2:29 AM,24.8,21.2,86,29.57,10.0,NNE,12.7,-,N/A,,Mostly Cloudy,20,2014-03-27 07:29:00
2:53 AM,24.1,21.9,91,29.61,10.0,North,12.7,-,N/A,,Overcast,10,2014-03-27 07:53:00
3:53 AM,25.0,21.0,85,29.63,10.0,North,18.4,-,N/A,,Overcast,10,2014-03-27 08:53:00
4:53 AM,24.1,21.0,88,29.65,10.0,North,18.4,-,N/A,,Overcast,10,2014-03-27 09:53:00
5:53 AM,24.1,21.0,88,29.67,10.0,North,19.6,-,N/A,,Overcast,10,2014-03-27 10:53:00
6:53 AM,24.1,19.9,84,29.69,10.0,NNE,20.7,-,N/A,,Overcast,20,2014-03-27 11:53:00
7:42 AM,24.8,19.4,80,29.68,10.0,North,18.4,-,N/A,,Overcast,10,2014-03-27 12:42:00
7:53 AM,24.1,19.9,84,29.72,10.0,North,19.6,-,N/A,,Overcast,360,2014-03-27 12:53:00
8:53 AM,23.0,19.0,85,29.74,10.0,North,17.3,-,N/A,,Mostly Cloudy,10,2014-03-27 13:53:00
9:53 AM,25.0,18.0,75,29.76,10.0,North,23.0,28.8,N/A,,Overcast,10,2014-03-27 14:53:00
10:53 AM,26.1,18.0,71,29.77,10.0,North,19.6,26.5,N/A,,Mostly Cloudy,10,2014-03-27 15:53:00
11:53 AM,28.0,18.0,66,29.78,10.0,North,25.3,31.1,N/A,,Scattered Clouds,10,2014-03-27 16:53:00
12:53 PM,30.0,18.0,61,29.78,10.0,North,20.7,28.8,N/A,,Scattered Clouds,360,2014-03-27 17:53:00
1:53 PM,28.9,16.0,58,29.80,10.0,North,24.2,-,N/A,,Scattered Clouds,360,2014-03-27 18:53:00
2:53 PM,30.0,16.0,56,29.80,10.0,North,23.0,28.8,N/A,,Scattered Clouds,360,2014-03-27 19:53:00
3:53 PM,30.0,14.0,51,29.81,10.0,North,23.0,32.2,N/A,,Scattered Clouds,350,2014-03-27 20:53:00
4:53 PM,28.9,16.0,58,29.83,10.0,North,24.2,32.2,N/A,,Scattered Clouds,360,2014-03-27 21:53:00
5:53 PM,27.0,15.1,61,29.85,10.0,North,24.2,32.2,N/A,,Scattered Clouds,360,2014-03-27 22:53:00
6:53 PM,25.0,12.0,58,29.88,10.0,North,23.0,33.4,N/A,,Scattered Clouds,350,2014-03-27 23:53:00
7:53 PM,21.9,12.0,66,29.90,10.0,North,21.9,-,N/A,,Partly Cloudy,350,2014-03-28 00:53:00
8:53 PM,19.9,10.9,68,29.93,10.0,North,21.9,27.6,N/A,,Clear,350,2014-03-28 01:53:00
9:53 PM,19.0,10.9,71,29.95,10.0,North,18.4,-,N/A,,Clear,350,2014-03-28 02:53:00
10:53 PM,18.0,10.0,71,29.98,10.0,North,13.8,24.2,N/A,,Clear,350,2014-03-28 03:53:00
11:53 PM,17.1,9.0,71,30.01,10.0,North,11.5,-,N/A,,Clear,350,2014-03-28 04:53:00